Kaneohe, HI

9:55 AM HST on July 29, 2016 (GMT -1000)
Kaneohe Bay Marine Corps Air Facility | | Change Station

Elev 23 ft 21.45 °N, 157.76 °W | Updated 58 minutes ago

Overcast
Overcast
81 °F
Feels Like 83 °F
N
15
Wind Variable Wind from NE

Today
High -- | Low -- °F
--% Chance of Precip.
Yesterday
High -- | Low -- °F
Precip. -- in
Pressure 30.02 in
Visibility 10.0 miles
Clouds Mostly Cloudy 3200 ft
Overcast 5000 ft
Heat Index 83 °F
Dew Point 67 °F
Humidity 62%
Rainfall 0.00 in
Snow Depth Not available.
6:03 AM 7:11 PM
Waning Crescent, 19% visible
METAR PHNG 291857Z 05013KT 10SM BKN032 OVC050 27/19 A3003 RMK AO2 SLP164 T02720194 $
Pressure 30.02 in
Visibility 10.0 miles
Clouds Mostly Cloudy 3200 ft
Overcast 5000 ft
Heat Index 83 °F
Dew Point 67 °F
Humidity 62%
Rainfall 0.00 in
Snow Depth Not available.
6:03 AM 7:11 PM
Waning Crescent, 19% visible
METAR PHNG 291857Z 05013KT 10SM BKN032 OVC050 27/19 A3003 RMK AO2 SLP164 T02720194 $

10-Day Weather Forecast

Almanac

Astronomy

Jul. 29, 2016 Rise Set
Actual Time
Civil Twilight
Nautical Twilight
Astronomical Twilight
Moon
Length of Visible Light
Length of Day
Tomorrow will be .
, % of the Moon is Illuminated

Today's Extremes

State Highs State Lows

Community

WunderPhotos

Upload Photos

1,928,401 photos uploaded!

WunderBlog® & News

Nearby

Air Quality

  Air Quality AQ Index Pollutant
Not available.

Snow Depth

Station Depth Elevation

Earthquake Activity

City Distance Mag. Time & Date
Minimum magnitude displayed is 2.5.

Coastal Water Temperatures

Place Temperature

Stations

Nearby Weather Stations

Station Location Temp. Windchill Dew Point Humidity Wind Precip. Elev Updated Type
                   

Watches & Warnings

There are currently no watches in effect.